createdAt,value
2022-11-12T00:04:53.886Z,49.21
2022-11-12T00:11:16.951Z,49.30
2022-11-12T00:17:40.261Z,49.47
2022-11-12T00:24:02.992Z,49.35
2022-11-12T00:30:26.166Z,49.46
2022-11-12T00:36:49.365Z,49.44
2022-11-12T00:43:12.118Z,49.43
2022-11-12T00:49:34.817Z,49.37
2022-11-12T00:55:57.722Z,49.59
2022-11-12T01:02:20.293Z,49.59
2022-11-12T01:08:42.917Z,49.90
2022-11-12T01:15:06.259Z,49.84
2022-11-12T01:21:29.116Z,49.82
2022-11-12T01:27:51.557Z,49.81
2022-11-12T01:34:14.662Z,49.78
2022-11-12T01:40:37.655Z,49.75
2022-11-12T01:47:00.541Z,49.82
2022-11-12T01:53:26.194Z,49.91
2022-11-12T01:59:49.015Z,49.67
2022-11-12T02:06:11.827Z,49.86
2022-11-12T02:12:34.580Z,49.92
2022-11-12T02:18:57.656Z,49.75
2022-11-12T02:25:20.525Z,50.00
2022-11-12T02:31:43.548Z,50.23
2022-11-12T02:38:06.472Z,50.01
2022-11-12T02:44:29.779Z,49.98
2022-11-12T02:50:46.128Z,50.03
2022-11-12T02:57:08.789Z,50.18
2022-11-12T03:03:31.636Z,50.47
2022-11-12T03:09:54.326Z,50.44
2022-11-12T03:16:17.029Z,50.60
2022-11-12T03:22:39.887Z,50.47
2022-11-12T03:29:02.746Z,50.60
2022-11-12T03:35:25.332Z,50.51
2022-11-12T03:41:48.083Z,50.60
2022-11-12T03:48:10.982Z,50.54
2022-11-12T03:54:33.731Z,50.49
2022-11-12T04:00:56.676Z,50.41
2022-11-12T04:07:17.765Z,50.49
2022-11-12T04:13:49.468Z,50.65
2022-11-12T04:20:10.516Z,50.71
2022-11-12T04:26:45.557Z,50.65
2022-11-12T04:33:08.622Z,50.64
2022-11-12T04:39:31.520Z,50.79
2022-11-12T04:45:54.252Z,50.69
2022-11-12T04:52:26.593Z,50.70
2022-11-12T04:58:49.582Z,50.83
2022-11-12T05:05:12.462Z,50.51
2022-11-12T05:11:35.420Z,50.56
2022-11-12T05:17:58.172Z,50.78
2022-11-12T05:24:40.553Z,50.88
2022-11-12T05:31:03.518Z,51.12
2022-11-12T05:37:26.581Z,51.03
2022-11-12T05:43:49.469Z,51.15
2022-11-12T05:50:12.440Z,51.20
2022-11-12T05:56:35.513Z,51.18
2022-11-12T06:02:58.636Z,50.74
2022-11-12T06:09:21.620Z,50.51
2022-11-12T06:15:39.416Z,50.14
2022-11-12T06:22:02.631Z,49.65
2022-11-12T06:28:26.036Z,49.30
2022-11-12T06:34:49.121Z,49.07
2022-11-12T06:41:12.160Z,48.68
2022-11-12T06:47:34.856Z,48.49
2022-11-12T06:54:00.707Z,48.17
2022-11-12T07:00:23.699Z,47.92
2022-11-12T07:06:46.876Z,47.73
2022-11-12T07:13:09.945Z,47.69
2022-11-12T07:19:25.671Z,47.50
2022-11-12T07:25:48.335Z,47.28
2022-11-12T07:32:11.022Z,47.16
2022-11-12T07:38:33.771Z,47.09
2022-11-12T07:44:56.662Z,47.07
2022-11-12T07:51:19.452Z,46.76
2022-11-12T07:57:42.302Z,46.57
2022-11-12T08:04:04.931Z,46.34
2022-11-12T08:10:27.535Z,46.47
2022-11-12T08:16:50.225Z,46.59
2022-11-12T08:23:12.786Z,46.98
2022-11-12T08:29:35.658Z,46.99
2022-11-12T08:35:58.249Z,47.30
2022-11-12T08:42:21.006Z,47.52
2022-11-12T08:48:42.727Z,47.38
2022-11-12T08:55:05.548Z,47.63
2022-11-12T09:01:28.134Z,47.50
2022-11-12T09:07:51.423Z,47.62
2022-11-12T09:14:14.407Z,47.69
2022-11-12T09:20:37.161Z,47.36
2022-11-12T09:26:59.815Z,47.55
2022-11-12T09:33:22.897Z,47.58
2022-11-12T09:39:45.376Z,47.11
2022-11-12T09:46:27.604Z,46.84
2022-11-12T09:52:51.293Z,46.83
2022-11-12T09:59:14.087Z,46.55
2022-11-12T10:05:58.405Z,46.55
2022-11-12T10:12:26.217Z,46.61
2022-11-12T10:18:49.567Z,46.46
2022-11-12T10:25:12.215Z,46.30
2022-11-12T10:31:35.049Z,46.45
2022-11-12T10:38:03.945Z,46.47
2022-11-12T10:44:29.921Z,46.26
2022-11-12T10:50:58.881Z,46.20
2022-11-12T10:57:21.736Z,46.12
2022-11-12T11:03:56.734Z,46.01
2022-11-12T11:10:19.578Z,46.25
2022-11-12T11:16:42.471Z,46.50
2022-11-12T11:23:22.748Z,46.52
2022-11-12T11:29:51.895Z,46.70
2022-11-12T11:36:39.367Z,46.45
2022-11-12T11:43:14.266Z,46.24
2022-11-12T11:49:40.096Z,46.30
2022-11-12T11:56:03.072Z,46.20
2022-11-12T12:02:29.328Z,46.21
2022-11-12T12:08:58.195Z,46.19
2022-11-12T12:15:21.151Z,46.07
2022-11-12T12:21:50.127Z,46.18
2022-11-12T12:28:27.250Z,46.20
2022-11-12T12:34:56.196Z,46.08
2022-11-12T12:41:18.341Z,46.17
2022-11-12T12:47:44.220Z,46.29
2022-11-12T12:54:09.800Z,46.69
2022-11-12T13:00:33.506Z,47.38
2022-11-12T13:07:10.992Z,47.64
2022-11-12T13:13:43.283Z,47.91
2022-11-12T13:20:08.966Z,48.11
2022-11-12T13:26:31.705Z,48.10
2022-11-12T13:32:51.592Z,47.97
2022-11-12T13:39:14.178Z,47.89
2022-11-12T13:45:36.823Z,47.72
2022-11-12T13:51:52.211Z,47.82
2022-11-12T13:58:15.111Z,47.70
2022-11-12T14:04:46.839Z,47.91
2022-11-12T14:11:17.186Z,48.15
2022-11-12T14:17:49.260Z,48.26
2022-11-12T14:24:18.314Z,48.03
2022-11-12T14:30:56.938Z,47.88
2022-11-12T14:37:20.108Z,47.50
2022-11-12T14:43:43.073Z,47.06
2022-11-12T14:50:21.578Z,46.77
2022-11-12T14:56:45.002Z,46.39
2022-11-12T15:03:10.926Z,46.20
2022-11-12T15:09:36.736Z,46.11
2022-11-12T15:16:05.410Z,46.20
2022-11-12T15:22:37.223Z,46.14
2022-11-12T15:29:12.524Z,46.26
2022-11-12T15:35:41.534Z,46.28
2022-11-12T15:42:04.455Z,46.38
2022-11-12T15:48:27.371Z,46.38
2022-11-12T15:54:50.159Z,46.44
2022-11-12T16:01:16.134Z,46.43
2022-11-12T16:07:38.959Z,46.49
2022-11-12T16:13:57.577Z,46.60
2022-11-12T16:20:13.470Z,46.64
2022-11-12T16:26:36.314Z,46.68
2022-11-12T16:32:58.990Z,46.74
2022-11-12T16:39:21.673Z,46.79
2022-11-12T16:45:44.366Z,46.82
2022-11-12T16:52:07.238Z,46.87
2022-11-12T16:58:29.782Z,46.87
2022-11-12T17:04:52.756Z,46.78
2022-11-12T17:11:15.531Z,46.90
2022-11-12T17:17:38.754Z,46.95
2022-11-12T17:24:01.510Z,46.95
2022-11-12T17:30:24.438Z,47.05
2022-11-12T17:36:47.163Z,46.70
2022-11-12T17:43:10.155Z,46.66
2022-11-12T17:49:24.000Z,46.11
2022-11-12T17:55:46.793Z,45.86
2022-11-12T18:02:09.666Z,45.65
2022-11-12T18:08:32.520Z,45.47
2022-11-12T18:14:55.929Z,45.29
2022-11-12T18:21:18.696Z,45.31
2022-11-12T18:27:41.486Z,45.53
2022-11-12T18:34:04.428Z,45.69
2022-11-12T18:40:27.418Z,46.11
2022-11-12T18:46:56.271Z,46.47
2022-11-12T18:53:19.226Z,46.67
2022-11-12T18:59:35.570Z,46.81
2022-11-12T19:05:58.642Z,46.96
2022-11-12T19:12:21.526Z,46.81
2022-11-12T19:18:44.266Z,46.87
2022-11-12T19:25:06.845Z,47.09
2022-11-12T19:31:29.641Z,47.07
2022-11-12T19:37:52.180Z,46.98
2022-11-12T19:44:15.318Z,46.89
2022-11-12T19:50:37.929Z,46.93
2022-11-12T19:56:43.543Z,46.81
2022-11-12T20:03:06.136Z,46.75
2022-11-12T20:09:29.156Z,46.46
2022-11-12T20:15:51.727Z,46.25
2022-11-12T20:22:14.823Z,45.97
2022-11-12T20:28:37.340Z,45.96
2022-11-12T20:34:59.954Z,45.65
2022-11-12T20:41:22.500Z,45.38
2022-11-12T20:47:45.098Z,45.32
2022-11-12T20:54:08.105Z,44.58
2022-11-12T21:00:31.169Z,44.56
2022-11-12T21:07:05.107Z,44.54
2022-11-12T21:13:28.207Z,44.42
2022-11-12T21:19:50.880Z,44.29
2022-11-12T21:26:16.503Z,44.33
2022-11-12T21:32:37.979Z,44.32
2022-11-12T21:39:00.829Z,44.42
2022-11-12T21:45:23.608Z,44.31
2022-11-12T21:51:38.066Z,44.29
2022-11-12T21:58:00.946Z,44.34
2022-11-12T22:04:23.943Z,44.35
2022-11-12T22:10:46.801Z,44.50
2022-11-12T22:17:09.583Z,44.83
2022-11-12T22:23:32.355Z,45.12
2022-11-12T22:29:55.419Z,45.16
2022-11-12T22:36:18.136Z,45.27
2022-11-12T22:42:40.891Z,45.05
2022-11-12T22:49:03.748Z,45.20
2022-11-12T22:55:26.212Z,45.18
2022-11-12T23:01:49.124Z,45.22
2022-11-12T23:08:12.275Z,45.21
2022-11-12T23:14:35.156Z,45.34
2022-11-12T23:20:57.549Z,45.41
2022-11-12T23:27:20.088Z,45.41
2022-11-12T23:33:43.104Z,45.68
2022-11-12T23:40:05.940Z,45.86
2022-11-12T23:46:28.517Z,45.96
2022-11-12T23:52:51.427Z,45.95
2022-11-12T23:59:14.278Z,46.05
